sensor_id;sensor_type;location;lat;lon;timestamp;temperature;humidity
66190;DHT22;52992;52.084;5.412;2022-08-11T00:00:02;24.70;44.50
66190;DHT22;52992;52.084;5.412;2022-08-11T00:02:38;24.60;44.40
66190;DHT22;52992;52.084;5.412;2022-08-11T00:05:14;24.60;44.70
66190;DHT22;52992;52.084;5.412;2022-08-11T00:07:51;24.50;44.80
66190;DHT22;52992;52.084;5.412;2022-08-11T00:10:21;24.50;45.10
66190;DHT22;52992;52.084;5.412;2022-08-11T00:13:00;24.50;45.00
66190;DHT22;52992;52.084;5.412;2022-08-11T00:15:38;24.40;45.00
66190;DHT22;52992;52.084;5.412;2022-08-11T00:18:07;24.40;44.90
66190;DHT22;52992;52.084;5.412;2022-08-11T00:20:37;24.40;45.00
66190;DHT22;52992;52.084;5.412;2022-08-11T00:23:07;24.30;45.20
66190;DHT22;52992;52.084;5.412;2022-08-11T00:25:39;24.30;44.90
66190;DHT22;52992;52.084;5.412;2022-08-11T00:30:54;24.20;45.10
66190;DHT22;52992;52.084;5.412;2022-08-11T00:33:23;24.20;45.40
66190;DHT22;52992;52.084;5.412;2022-08-11T00:36:14;24.20;45.20
66190;DHT22;52992;52.084;5.412;2022-08-11T00:38:43;24.20;45.10
66190;DHT22;52992;52.084;5.412;2022-08-11T00:49:42;23.90;45.80
66190;DHT22;52992;52.084;5.412;2022-08-11T01:28:02;23.40;47.00
66190;DHT22;52992;52.084;5.412;2022-08-11T01:31:01;23.30;47.30
66190;DHT22;52992;52.084;5.412;2022-08-11T01:39:54;23.10;48.10
66190;DHT22;52992;52.084;5.412;2022-08-11T01:48:42;23.00;47.90
66190;DHT22;52992;52.084;5.412;2022-08-11T01:51:36;23.00;48.10
66190;DHT22;52992;52.084;5.412;2022-08-11T01:54:26;23.00;48.20
66190;DHT22;52992;52.084;5.412;2022-08-11T01:57:30;22.90;48.50
66190;DHT22;52992;52.084;5.412;2022-08-11T02:00:10;22.90;49.00
66190;DHT22;52992;52.084;5.412;2022-08-11T02:05:41;22.80;48.90
66190;DHT22;52992;52.084;5.412;2022-08-11T02:11:27;22.80;48.90
66190;DHT22;52992;52.084;5.412;2022-08-11T02:14:25;22.70;48.70
66190;DHT22;52992;52.084;5.412;2022-08-11T02:22:51;22.60;49.50
66190;DHT22;52992;52.084;5.412;2022-08-11T02:26:20;22.60;49.80
66190;DHT22;52992;52.084;5.412;2022-08-11T02:35:17;22.50;49.70
66190;DHT22;52992;52.084;5.412;2022-08-11T02:43:41;22.40;50.00
66190;DHT22;52992;52.084;5.412;2022-08-11T02:46:23;22.30;50.20
66190;DHT22;52992;52.084;5.412;2022-08-11T02:48:59;22.30;50.30
66190;DHT22;52992;52.084;5.412;2022-08-11T02:52:02;22.30;50.50
66190;DHT22;52992;52.084;5.412;2022-08-11T02:58:10;22.20;50.30
66190;DHT22;52992;52.084;5.412;2022-08-11T03:01:02;22.20;50.20
66190;DHT22;52992;52.084;5.412;2022-08-11T03:03:53;22.20;50.10
66190;DHT22;52992;52.084;5.412;2022-08-11T03:06:28;22.20;50.30
66190;DHT22;52992;52.084;5.412;2022-08-11T03:11:55;22.10;50.40
66190;DHT22;52992;52.084;5.412;2022-08-11T03:14:57;22.10;50.20
66190;DHT22;52992;52.084;5.412;2022-08-11T03:18:19;22.10;50.10
66190;DHT22;52992;52.084;5.412;2022-08-11T03:23:33;22.10;50.10
66190;DHT22;52992;52.084;5.412;2022-08-11T03:26:30;22.00;50.30
66190;DHT22;52992;52.084;5.412;2022-08-11T03:29:10;22.00;50.40
66190;DHT22;52992;52.084;5.412;2022-08-11T03:32:06;22.00;50.40
66190;DHT22;52992;52.084;5.412;2022-08-11T03:34:38;21.90;50.80
66190;DHT22;52992;52.084;5.412;2022-08-11T03:48:28;21.80;51.30
66190;DHT22;52992;52.084;5.412;2022-08-11T04:05:37;21.70;51.80
66190;DHT22;52992;52.084;5.412;2022-08-11T04:08:35;21.60;51.70
66190;DHT22;52992;52.084;5.412;2022-08-11T04:14:41;21.60;51.90
66190;DHT22;52992;52.084;5.412;2022-08-11T04:20:18;21.60;52.00
66190;DHT22;52992;52.084;5.412;2022-08-11T04:25:54;21.50;52.00
66190;DHT22;52992;52.084;5.412;2022-08-11T04:29:05;21.50;52.00
66190;DHT22;52992;52.084;5.412;2022-08-11T04:32:24;21.50;53.00
66190;DHT22;52992;52.084;5.412;2022-08-11T04:41:17;21.40;52.00
66190;DHT22;52992;52.084;5.412;2022-08-11T04:47:09;21.40;52.00
66190;DHT22;52992;52.084;5.412;2022-08-11T04:54:04;21.30;52.00
66190;DHT22;52992;52.084;5.412;2022-08-11T04:57:00;21.30;52.40
66190;DHT22;52992;52.084;5.412;2022-08-11T05:00:03;21.30;52.60
66190;DHT22;52992;52.084;5.412;2022-08-11T05:14:40;21.30;53.30
66190;DHT22;52992;52.084;5.412;2022-08-11T05:20:42;21.40;53.20
66190;DHT22;52992;52.084;5.412;2022-08-11T05:23:33;21.50;53.30
66190;DHT22;52992;52.084;5.412;2022-08-11T05:26:20;21.40;53.50
66190;DHT22;52992;52.084;5.412;2022-08-11T05:29:48;21.40;53.60
66190;DHT22;52992;52.084;5.412;2022-08-11T05:32:41;21.50;54.10
66190;DHT22;52992;52.084;5.412;2022-08-11T05:35:46;21.50;54.20
66190;DHT22;52992;52.084;5.412;2022-08-11T05:38:32;21.50;54.50
66190;DHT22;52992;52.084;5.412;2022-08-11T05:41:23;21.60;54.20
66190;DHT22;52992;52.084;5.412;2022-08-11T05:44:10;21.70;54.10
66190;DHT22;52992;52.084;5.412;2022-08-11T05:47:01;21.70;54.20
66190;DHT22;52992;52.084;5.412;2022-08-11T05:49:49;21.80;54.60
66190;DHT22;52992;52.084;5.412;2022-08-11T05:52:45;21.80;54.80
66190;DHT22;52992;52.084;5.412;2022-08-11T05:55:40;21.90;55.10
66190;DHT22;52992;52.084;5.412;2022-08-11T05:58:37;22.00;55.10
66190;DHT22;52992;52.084;5.412;2022-08-11T06:01:12;22.10;55.20
66190;DHT22;52992;52.084;5.412;2022-08-11T06:03:42;22.20;55.10
66190;DHT22;52992;52.084;5.412;2022-08-11T06:06:29;22.30;54.90
66190;DHT22;52992;52.084;5.412;2022-08-11T06:08:57;22.40;54.70
66190;DHT22;52992;52.084;5.412;2022-08-11T06:11:25;22.50;54.90
66190;DHT22;52992;52.084;5.412;2022-08-11T06:14:11;22.70;54.80
66190;DHT22;52992;52.084;5.412;2022-08-11T06:16:40;22.80;54.50
66190;DHT22;52992;52.084;5.412;2022-08-11T06:19:08;22.90;54.40
66190;DHT22;52992;52.084;5.412;2022-08-11T06:21:35;23.10;54.20
66190;DHT22;52992;52.084;5.412;2022-08-11T06:24:12;23.30;53.80
66190;DHT22;52992;52.084;5.412;2022-08-11T06:26:40;23.40;53.60
66190;DHT22;52992;52.084;5.412;2022-08-11T06:29:35;23.50;53.10
66190;DHT22;52992;52.084;5.412;2022-08-11T06:32:14;23.70;52.90
66190;DHT22;52992;52.084;5.412;2022-08-11T06:43:06;24.00;52.80
66190;DHT22;52992;52.084;5.412;2022-08-11T06:48:16;24.30;53.10
66190;DHT22;52992;52.084;5.412;2022-08-11T06:50:52;24.40;52.30
66190;DHT22;52992;52.084;5.412;2022-08-11T06:53:52;24.50;51.50
66190;DHT22;52992;52.084;5.412;2022-08-11T06:56:37;24.60;52.10
66190;DHT22;52992;52.084;5.412;2022-08-11T06:59:44;24.80;53.00
66190;DHT22;52992;52.084;5.412;2022-08-11T07:02:36;24.90;52.40
66190;DHT22;52992;52.084;5.412;2022-08-11T07:14:20;25.40;51.00
66190;DHT22;52992;52.084;5.412;2022-08-11T07:17:14;25.60;50.50
66190;DHT22;52992;52.084;5.412;2022-08-11T07:19:52;25.70;50.50
66190;DHT22;52992;52.084;5.412;2022-08-11T07:22:40;25.80;49.70
66190;DHT22;52992;52.084;5.412;2022-08-11T07:25:27;25.90;48.70
66190;DHT22;52992;52.084;5.412;2022-08-11T07:28:28;26.00;49.10
66190;DHT22;52992;52.084;5.412;2022-08-11T07:31:18;26.10;48.90
66190;DHT22;52992;52.084;5.412;2022-08-11T07:33:51;26.20;48.30
66190;DHT22;52992;52.084;5.412;2022-08-11T07:36:41;26.40;48.20
66190;DHT22;52992;52.084;5.412;2022-08-11T07:39:22;26.50;47.00
66190;DHT22;52992;52.084;5.412;2022-08-11T07:41:52;26.60;46.90
66190;DHT22;52992;52.084;5.412;2022-08-11T07:44:20;26.70;46.70
66190;DHT22;52992;52.084;5.412;2022-08-11T07:46:48;26.90;47.10
66190;DHT22;52992;52.084;5.412;2022-08-11T07:49:36;26.90;46.50
66190;DHT22;52992;52.084;5.412;2022-08-11T07:52:22;27.10;46.10
66190;DHT22;52992;52.084;5.412;2022-08-11T07:54:59;27.20;46.20
66190;DHT22;52992;52.084;5.412;2022-08-11T07:57:29;27.30;45.80
66190;DHT22;52992;52.084;5.412;2022-08-11T08:00:41;27.40;44.90
66190;DHT22;52992;52.084;5.412;2022-08-11T08:03:32;27.60;46.30
66190;DHT22;52992;52.084;5.412;2022-08-11T08:06:21;27.80;45.50
66190;DHT22;52992;52.084;5.412;2022-08-11T08:09:07;27.90;44.60
66190;DHT22;52992;52.084;5.412;2022-08-11T08:11:53;28.00;44.50
66190;DHT22;52992;52.084;5.412;2022-08-11T08:14:39;28.10;43.10
66190;DHT22;52992;52.084;5.412;2022-08-11T08:17:26;28.20;44.20
66190;DHT22;52992;52.084;5.412;2022-08-11T08:20:47;28.30;43.20
66190;DHT22;52992;52.084;5.412;2022-08-11T08:23:20;28.40;42.00
66190;DHT22;52992;52.084;5.412;2022-08-11T08:26:03;28.40;41.80
66190;DHT22;52992;52.084;5.412;2022-08-11T08:28:32;28.50;40.30
66190;DHT22;52992;52.084;5.412;2022-08-11T08:31:00;28.60;42.40
66190;DHT22;52992;52.084;5.412;2022-08-11T08:33:30;28.70;42.10
66190;DHT22;52992;52.084;5.412;2022-08-11T08:36:00;28.70;43.20
66190;DHT22;52992;52.084;5.412;2022-08-11T08:38:46;28.90;43.60
66190;DHT22;52992;52.084;5.412;2022-08-11T08:41:18;29.00;41.50
66190;DHT22;52992;52.084;5.412;2022-08-11T08:43:49;29.20;41.70
66190;DHT22;52992;52.084;5.412;2022-08-11T08:46:21;29.30;41.10
66190;DHT22;52992;52.084;5.412;2022-08-11T08:48:49;29.30;39.40
66190;DHT22;52992;52.084;5.412;2022-08-11T08:51:19;29.50;40.20
66190;DHT22;52992;52.084;5.412;2022-08-11T08:54:36;29.60;41.50
66190;DHT22;52992;52.084;5.412;2022-08-11T08:57:05;29.70;42.10
66190;DHT22;52992;52.084;5.412;2022-08-11T08:59:37;29.80;41.10
66190;DHT22;52992;52.084;5.412;2022-08-11T09:02:18;29.90;40.10
66190;DHT22;52992;52.084;5.412;2022-08-11T09:05:01;30.00;38.10
66190;DHT22;52992;52.084;5.412;2022-08-11T09:07:29;30.10;37.00
66190;DHT22;52992;52.084;5.412;2022-08-11T09:10:07;30.20;38.70
66190;DHT22;52992;52.084;5.412;2022-08-11T09:12:37;30.30;39.60
66190;DHT22;52992;52.084;5.412;2022-08-11T09:15:06;30.30;39.70
66190;DHT22;52992;52.084;5.412;2022-08-11T09:17:47;30.40;38.10
66190;DHT22;52992;52.084;5.412;2022-08-11T09:20:18;30.60;37.30
66190;DHT22;52992;52.084;5.412;2022-08-11T09:22:48;30.70;36.00
66190;DHT22;52992;52.084;5.412;2022-08-11T09:25:59;30.70;38.90
66190;DHT22;52992;52.084;5.412;2022-08-11T09:28:45;30.90;35.90
66190;DHT22;52992;52.084;5.412;2022-08-11T09:31:13;31.00;36.60
66190;DHT22;52992;52.084;5.412;2022-08-11T09:33:42;31.10;37.70
66190;DHT22;52992;52.084;5.412;2022-08-11T09:36:12;31.30;39.70
66190;DHT22;52992;52.084;5.412;2022-08-11T09:38:59;31.40;38.80
66190;DHT22;52992;52.084;5.412;2022-08-11T09:41:46;31.60;37.80
66190;DHT22;52992;52.084;5.412;2022-08-11T09:44:33;31.70;35.20
66190;DHT22;52992;52.084;5.412;2022-08-11T09:49:48;31.90;34.60
66190;DHT22;52992;52.084;5.412;2022-08-11T09:52:18;32.10;37.10
66190;DHT22;52992;52.084;5.412;2022-08-11T09:54:47;32.30;37.20
66190;DHT22;52992;52.084;5.412;2022-08-11T09:57:18;32.40;32.60
66190;DHT22;52992;52.084;5.412;2022-08-11T10:00:10;32.50;32.90
66190;DHT22;52992;52.084;5.412;2022-08-11T10:02:45;32.70;34.10
66190;DHT22;52992;52.084;5.412;2022-08-11T10:05:16;32.80;34.50
66190;DHT22;52992;52.084;5.412;2022-08-11T10:08:04;33.00;35.40
66190;DHT22;52992;52.084;5.412;2022-08-11T10:10:34;33.20;33.90
66190;DHT22;52992;52.084;5.412;2022-08-11T10:13:14;33.30;35.60
66190;DHT22;52992;52.084;5.412;2022-08-11T10:16:05;33.40;34.00
66190;DHT22;52992;52.084;5.412;2022-08-11T10:18:45;33.50;31.30
66190;DHT22;52992;52.084;5.412;2022-08-11T10:21:49;33.60;30.90
66190;DHT22;52992;52.084;5.412;2022-08-11T10:24:37;33.80;34.00
66190;DHT22;52992;52.084;5.412;2022-08-11T10:27:23;34.10;33.70
66190;DHT22;52992;52.084;5.412;2022-08-11T10:30:10;34.20;28.30
66190;DHT22;52992;52.084;5.412;2022-08-11T10:32:57;34.20;26.60
66190;DHT22;52992;52.084;5.412;2022-08-11T10:36:03;34.10;28.00
66190;DHT22;52992;52.084;5.412;2022-08-11T10:38:43;34.20;31.70
66190;DHT22;52992;52.084;5.412;2022-08-11T10:41:13;34.30;31.90
66190;DHT22;52992;52.084;5.412;2022-08-11T10:43:58;34.40;31.80
66190;DHT22;52992;52.084;5.412;2022-08-11T10:46:29;34.50;31.40
66190;DHT22;52992;52.084;5.412;2022-08-11T10:49:16;34.70;29.50
66190;DHT22;52992;52.084;5.412;2022-08-11T10:51:44;34.80;28.40
66190;DHT22;52992;52.084;5.412;2022-08-11T10:54:32;35.00;28.00
66190;DHT22;52992;52.084;5.412;2022-08-11T10:57:18;35.10;30.20
66190;DHT22;52992;52.084;5.412;2022-08-11T11:00:05;35.50;30.00
66190;DHT22;52992;52.084;5.412;2022-08-11T11:02:33;35.70;29.30
66190;DHT22;52992;52.084;5.412;2022-08-11T11:05:13;35.90;29.30
66190;DHT22;52992;52.084;5.412;2022-08-11T11:07:56;36.10;29.10
66190;DHT22;52992;52.084;5.412;2022-08-11T11:10:26;36.40;28.70
66190;DHT22;52992;52.084;5.412;2022-08-11T11:12:55;36.70;29.50
66190;DHT22;52992;52.084;5.412;2022-08-11T11:15:44;36.90;28.60
66190;DHT22;52992;52.084;5.412;2022-08-11T11:18:33;37.20;29.10
66190;DHT22;52992;52.084;5.412;2022-08-11T11:21:05;37.50;27.40
66190;DHT22;52992;52.084;5.412;2022-08-11T11:23:48;37.80;26.30
66190;DHT22;52992;52.084;5.412;2022-08-11T11:29:47;38.70;26.20
66190;DHT22;52992;52.084;5.412;2022-08-11T11:37:49;39.90;25.30
66190;DHT22;52992;52.084;5.412;2022-08-11T11:40:31;40.90;24.60
66190;DHT22;52992;52.084;5.412;2022-08-11T11:42:59;42.30;23.90
66190;DHT22;52992;52.084;5.412;2022-08-11T11:45:26;43.50;21.50
66190;DHT22;52992;52.084;5.412;2022-08-11T11:47:55;44.70;20.80
66190;DHT22;52992;52.084;5.412;2022-08-11T11:50:24;45.80;17.80
66190;DHT22;52992;52.084;5.412;2022-08-11T11:53:00;46.80;18.60
66190;DHT22;52992;52.084;5.412;2022-08-11T11:55:28;47.70;18.30
66190;DHT22;52992;52.084;5.412;2022-08-11T11:57:57;48.50;18.30
66190;DHT22;52992;52.084;5.412;2022-08-11T12:00:44;49.30;18.30
66190;DHT22;52992;52.084;5.412;2022-08-11T12:03:32;50.10;17.50
66190;DHT22;52992;52.084;5.412;2022-08-11T12:06:00;50.80;16.20
66190;DHT22;52992;52.084;5.412;2022-08-11T12:08:28;51.40;15.90
66190;DHT22;52992;52.084;5.412;2022-08-11T12:11:01;51.80;14.80
66190;DHT22;52992;52.084;5.412;2022-08-11T12:13:48;51.80;15.30
66190;DHT22;52992;52.084;5.412;2022-08-11T12:16:22;52.20;16.40
66190;DHT22;52992;52.084;5.412;2022-08-11T12:19:07;52.70;16.10
66190;DHT22;52992;52.084;5.412;2022-08-11T12:21:34;53.40;15.60
66190;DHT22;52992;52.084;5.412;2022-08-11T12:24:03;54.00;15.60
66190;DHT22;52992;52.084;5.412;2022-08-11T12:26:56;54.20;14.90
66190;DHT22;52992;52.084;5.412;2022-08-11T12:29:46;54.30;14.90
66190;DHT22;52992;52.084;5.412;2022-08-11T12:32:22;54.70;15.10
66190;DHT22;52992;52.084;5.412;2022-08-11T12:34:50;55.00;15.10
66190;DHT22;52992;52.084;5.412;2022-08-11T12:37:23;55.20;14.70
66190;DHT22;52992;52.084;5.412;2022-08-11T12:39:59;55.10;14.50
66190;DHT22;52992;52.084;5.412;2022-08-11T12:43:09;55.20;14.30
66190;DHT22;52992;52.084;5.412;2022-08-11T12:46:07;55.60;14.80
66190;DHT22;52992;52.084;5.412;2022-08-11T12:48:39;55.90;14.90
66190;DHT22;52992;52.084;5.412;2022-08-11T12:51:32;56.20;15.00
66190;DHT22;52992;52.084;5.412;2022-08-11T12:54:50;56.50;15.10
66190;DHT22;52992;52.084;5.412;2022-08-11T12:57:34;56.60;14.60
66190;DHT22;52992;52.084;5.412;2022-08-11T13:00:21;56.80;15.20
66190;DHT22;52992;52.084;5.412;2022-08-11T13:03:09;56.80;15.00
66190;DHT22;52992;52.084;5.412;2022-08-11T13:05:57;56.80;14.80
66190;DHT22;52992;52.084;5.412;2022-08-11T13:08:26;56.90;15.10
66190;DHT22;52992;52.084;5.412;2022-08-11T13:10:57;57.00;15.40
66190;DHT22;52992;52.084;5.412;2022-08-11T13:13:44;57.00;14.90
66190;DHT22;52992;52.084;5.412;2022-08-11T13:16:31;57.00;14.70
66190;DHT22;52992;52.084;5.412;2022-08-11T13:19:20;56.90;14.40
66190;DHT22;52992;52.084;5.412;2022-08-11T13:21:49;57.00;15.00
66190;DHT22;52992;52.084;5.412;2022-08-11T13:24:17;56.90;14.40
66190;DHT22;52992;52.084;5.412;2022-08-11T13:26:46;56.80;14.10
66190;DHT22;52992;52.084;5.412;2022-08-11T13:29:18;56.50;13.90
66190;DHT22;52992;52.084;5.412;2022-08-11T13:31:46;56.20;14.40
66190;DHT22;52992;52.084;5.412;2022-08-11T13:34:15;55.90;13.20
66190;DHT22;52992;52.084;5.412;2022-08-11T13:36:43;55.70;13.20
66190;DHT22;52992;52.084;5.412;2022-08-11T13:39:11;55.30;12.60
66190;DHT22;52992;52.084;5.412;2022-08-11T13:41:40;54.90;14.00
66190;DHT22;52992;52.084;5.412;2022-08-11T13:44:12;54.80;13.00
66190;DHT22;52992;52.084;5.412;2022-08-11T13:46:44;54.30;13.60
66190;DHT22;52992;52.084;5.412;2022-08-11T13:49:15;53.80;13.60
66190;DHT22;52992;52.084;5.412;2022-08-11T13:51:43;53.10;14.50
66190;DHT22;52992;52.084;5.412;2022-08-11T13:54:18;52.50;15.30
66190;DHT22;52992;52.084;5.412;2022-08-11T13:56:47;52.00;14.90
66190;DHT22;52992;52.084;5.412;2022-08-11T13:59:18;51.50;14.70
66190;DHT22;52992;52.084;5.412;2022-08-11T14:01:59;51.00;15.70
66190;DHT22;52992;52.084;5.412;2022-08-11T14:04:56;50.30;13.80
66190;DHT22;52992;52.084;5.412;2022-08-11T14:07:26;49.30;14.80
66190;DHT22;52992;52.084;5.412;2022-08-11T14:09:58;48.70;16.10
66190;DHT22;52992;52.084;5.412;2022-08-11T14:12:29;48.10;15.30
66190;DHT22;52992;52.084;5.412;2022-08-11T14:15:21;47.40;15.50
66190;DHT22;52992;52.084;5.412;2022-08-11T14:17:57;46.60;15.70
66190;DHT22;52992;52.084;5.412;2022-08-11T14:20:33;46.10;16.80
66190;DHT22;52992;52.084;5.412;2022-08-11T14:23:28;45.50;17.40
66190;DHT22;52992;52.084;5.412;2022-08-11T14:25:57;45.10;18.00
66190;DHT22;52992;52.084;5.412;2022-08-11T14:28:44;44.90;18.90
66190;DHT22;52992;52.084;5.412;2022-08-11T14:31:14;44.80;19.10
66190;DHT22;52992;52.084;5.412;2022-08-11T14:33:42;44.50;19.20
66190;DHT22;52992;52.084;5.412;2022-08-11T14:36:30;44.10;19.60
66190;DHT22;52992;52.084;5.412;2022-08-11T14:38:59;43.70;18.80
66190;DHT22;52992;52.084;5.412;2022-08-11T14:41:26;43.20;18.80
66190;DHT22;52992;52.084;5.412;2022-08-11T14:44:34;42.70;18.60
66190;DHT22;52992;52.084;5.412;2022-08-11T14:47:21;42.10;19.90
66190;DHT22;52992;52.084;5.412;2022-08-11T14:49:54;41.70;20.30
66190;DHT22;52992;52.084;5.412;2022-08-11T14:55:12;40.90;20.30
66190;DHT22;52992;52.084;5.412;2022-08-11T14:57:59;40.50;20.30
66190;DHT22;52992;52.084;5.412;2022-08-11T15:00:27;40.30;20.30
66190;DHT22;52992;52.084;5.412;2022-08-11T15:02:55;40.00;21.50
66190;DHT22;52992;52.084;5.412;2022-08-11T15:08:26;39.50;20.50
66190;DHT22;52992;52.084;5.412;2022-08-11T15:11:14;39.20;20.30
66190;DHT22;52992;52.084;5.412;2022-08-11T15:14:02;38.80;21.30
66190;DHT22;52992;52.084;5.412;2022-08-11T15:16:29;38.50;20.50
66190;DHT22;52992;52.084;5.412;2022-08-11T15:19:15;38.30;21.30
66190;DHT22;52992;52.084;5.412;2022-08-11T15:21:45;38.10;21.70
66190;DHT22;52992;52.084;5.412;2022-08-11T15:24:31;37.90;21.20
66190;DHT22;52992;52.084;5.412;2022-08-11T15:26:59;37.70;22.50
66190;DHT22;52992;52.084;5.412;2022-08-11T15:29:46;37.60;22.40
66190;DHT22;52992;52.084;5.412;2022-08-11T15:32:33;37.50;22.00
66190;DHT22;52992;52.084;5.412;2022-08-11T15:35:19;37.30;21.90
66190;DHT22;52992;52.084;5.412;2022-08-11T15:38:05;37.10;21.90
66190;DHT22;52992;52.084;5.412;2022-08-11T15:40:37;37.00;22.00
66190;DHT22;52992;52.084;5.412;2022-08-11T15:46:40;36.70;21.20
66190;DHT22;52992;52.084;5.412;2022-08-11T15:49:16;36.60;21.50
66190;DHT22;52992;52.084;5.412;2022-08-11T15:52:01;36.50;21.30
66190;DHT22;52992;52.084;5.412;2022-08-11T15:54:31;36.40;21.50
66190;DHT22;52992;52.084;5.412;2022-08-11T15:57:00;36.30;22.30
66190;DHT22;52992;52.084;5.412;2022-08-11T15:59:31;36.20;23.00
66190;DHT22;52992;52.084;5.412;2022-08-11T16:02:19;36.20;22.40
66190;DHT22;52992;52.084;5.412;2022-08-11T16:05:09;36.20;23.50
66190;DHT22;52992;52.084;5.412;2022-08-11T16:07:40;36.10;22.80
66190;DHT22;52992;52.084;5.412;2022-08-11T16:10:16;36.10;23.10
66190;DHT22;52992;52.084;5.412;2022-08-11T16:12:56;36.10;22.90
66190;DHT22;52992;52.084;5.412;2022-08-11T16:15:31;36.00;23.10
66190;DHT22;52992;52.084;5.412;2022-08-11T16:18:19;36.00;23.50
66190;DHT22;52992;52.084;5.412;2022-08-11T16:20:49;35.90;23.20
66190;DHT22;52992;52.084;5.412;2022-08-11T16:23:18;35.90;23.10
66190;DHT22;52992;52.084;5.412;2022-08-11T16:25:45;35.90;22.30
66190;DHT22;52992;52.084;5.412;2022-08-11T16:28:33;35.90;23.30
66190;DHT22;52992;52.084;5.412;2022-08-11T16:31:02;35.90;22.90
66190;DHT22;52992;52.084;5.412;2022-08-11T16:33:41;35.80;23.20
66190;DHT22;52992;52.084;5.412;2022-08-11T16:36:18;35.80;23.00
66190;DHT22;52992;52.084;5.412;2022-08-11T16:39:07;35.80;23.30
66190;DHT22;52992;52.084;5.412;2022-08-11T16:41:36;35.70;22.90
66190;DHT22;52992;52.084;5.412;2022-08-11T16:44:24;35.70;23.30
66190;DHT22;52992;52.084;5.412;2022-08-11T16:47:16;35.70;23.20
66190;DHT22;52992;52.084;5.412;2022-08-11T16:50:04;35.60;23.20
66190;DHT22;52992;52.084;5.412;2022-08-11T16:52:31;35.50;23.60
66190;DHT22;52992;52.084;5.412;2022-08-11T16:54:58;35.40;23.30
66190;DHT22;52992;52.084;5.412;2022-08-11T16:57:30;35.40;23.80
66190;DHT22;52992;52.084;5.412;2022-08-11T17:00:17;35.40;23.30
66190;DHT22;52992;52.084;5.412;2022-08-11T17:02:53;35.30;24.20
66190;DHT22;52992;52.084;5.412;2022-08-11T17:05:45;35.30;23.70
66190;DHT22;52992;52.084;5.412;2022-08-11T17:08:38;35.20;23.30
66190;DHT22;52992;52.084;5.412;2022-08-11T17:11:32;35.20;24.40
66190;DHT22;52992;52.084;5.412;2022-08-11T17:14:25;35.20;23.60
66190;DHT22;52992;52.084;5.412;2022-08-11T17:17:10;35.10;24.00
66190;DHT22;52992;52.084;5.412;2022-08-11T17:19:43;35.10;24.40
66190;DHT22;52992;52.084;5.412;2022-08-11T17:22:32;35.10;24.80
66190;DHT22;52992;52.084;5.412;2022-08-11T17:25:18;35.00;24.60
66190;DHT22;52992;52.084;5.412;2022-08-11T17:27:47;35.00;24.80
66190;DHT22;52992;52.084;5.412;2022-08-11T17:30:14;34.90;24.40
66190;DHT22;52992;52.084;5.412;2022-08-11T17:32:48;34.90;24.70
66190;DHT22;52992;52.084;5.412;2022-08-11T17:35:40;34.90;24.50
66190;DHT22;52992;52.084;5.412;2022-08-11T17:38:20;34.80;24.10
66190;DHT22;52992;52.084;5.412;2022-08-11T17:40:56;34.70;24.20
66190;DHT22;52992;52.084;5.412;2022-08-11T17:43:50;34.70;24.60
66190;DHT22;52992;52.084;5.412;2022-08-11T17:46:36;34.70;24.70
66190;DHT22;52992;52.084;5.412;2022-08-11T17:49:29;34.60;24.60
66190;DHT22;52992;52.084;5.412;2022-08-11T17:52:04;34.50;24.90
66190;DHT22;52992;52.084;5.412;2022-08-11T17:54:50;34.50;25.20
66190;DHT22;52992;52.084;5.412;2022-08-11T17:57:40;34.40;25.30
66190;DHT22;52992;52.084;5.412;2022-08-11T18:00:26;34.30;25.70
66190;DHT22;52992;52.084;5.412;2022-08-11T18:02:54;34.20;25.30
66190;DHT22;52992;52.084;5.412;2022-08-11T18:05:43;34.10;25.50
66190;DHT22;52992;52.084;5.412;2022-08-11T18:08:12;34.10;25.20
66190;DHT22;52992;52.084;5.412;2022-08-11T18:11:00;34.00;25.70
66190;DHT22;52992;52.084;5.412;2022-08-11T18:14:08;33.90;25.60
66190;DHT22;52992;52.084;5.412;2022-08-11T18:16:55;33.80;25.50
66190;DHT22;52992;52.084;5.412;2022-08-11T18:19:40;33.70;25.90
66190;DHT22;52992;52.084;5.412;2022-08-11T18:22:29;33.60;26.20
66190;DHT22;52992;52.084;5.412;2022-08-11T18:25:20;33.50;26.20
66190;DHT22;52992;52.084;5.412;2022-08-11T18:28:13;33.40;26.80
66190;DHT22;52992;52.084;5.412;2022-08-11T18:31:01;33.30;27.20
66190;DHT22;52992;52.084;5.412;2022-08-11T18:33:52;33.30;27.50
66190;DHT22;52992;52.084;5.412;2022-08-11T18:36:41;33.10;27.20
66190;DHT22;52992;52.084;5.412;2022-08-11T18:39:33;33.00;27.50
66190;DHT22;52992;52.084;5.412;2022-08-11T18:42:22;32.90;27.20
66190;DHT22;52992;52.084;5.412;2022-08-11T18:45:10;32.80;27.30
66190;DHT22;52992;52.084;5.412;2022-08-11T18:48:14;32.70;26.90
66190;DHT22;52992;52.084;5.412;2022-08-11T18:51:05;32.60;27.10
66190;DHT22;52992;52.084;5.412;2022-08-11T18:54:06;32.40;27.10
66190;DHT22;52992;52.084;5.412;2022-08-11T18:56:56;32.40;27.20
66190;DHT22;52992;52.084;5.412;2022-08-11T18:59:42;32.30;27.60
66190;DHT22;52992;52.084;5.412;2022-08-11T19:02:31;32.20;27.40
66190;DHT22;52992;52.084;5.412;2022-08-11T19:05:19;32.10;27.80
66190;DHT22;52992;52.084;5.412;2022-08-11T19:08:31;32.00;27.80
66190;DHT22;52992;52.084;5.412;2022-08-11T19:11:18;31.90;27.50
66190;DHT22;52992;52.084;5.412;2022-08-11T19:14:11;31.80;28.00
66190;DHT22;52992;52.084;5.412;2022-08-11T19:16:58;31.70;28.10
66190;DHT22;52992;52.084;5.412;2022-08-11T19:20:07;31.60;28.10
66190;DHT22;52992;52.084;5.412;2022-08-11T19:22:54;31.50;28.10
66190;DHT22;52992;52.084;5.412;2022-08-11T19:25:43;31.40;29.10
66190;DHT22;52992;52.084;5.412;2022-08-11T19:28:29;31.30;29.40
66190;DHT22;52992;52.084;5.412;2022-08-11T19:31:16;31.30;30.00
66190;DHT22;52992;52.084;5.412;2022-08-11T19:34:08;31.20;30.00
66190;DHT22;52992;52.084;5.412;2022-08-11T19:36:54;31.00;30.30
66190;DHT22;52992;52.084;5.412;2022-08-11T19:39:41;30.90;30.10
66190;DHT22;52992;52.084;5.412;2022-08-11T19:42:27;30.80;30.00
66190;DHT22;52992;52.084;5.412;2022-08-11T19:45:14;30.80;30.00
66190;DHT22;52992;52.084;5.412;2022-08-11T19:48:00;30.70;30.20
66190;DHT22;52992;52.084;5.412;2022-08-11T19:50:58;30.60;30.40
66190;DHT22;52992;52.084;5.412;2022-08-11T19:53:46;30.40;30.70
66190;DHT22;52992;52.084;5.412;2022-08-11T19:56:32;30.40;30.80
66190;DHT22;52992;52.084;5.412;2022-08-11T19:59:21;30.30;31.00
66190;DHT22;52992;52.084;5.412;2022-08-11T20:02:08;30.20;31.30
66190;DHT22;52992;52.084;5.412;2022-08-11T20:04:53;30.10;31.40
66190;DHT22;52992;52.084;5.412;2022-08-11T20:07:39;30.00;31.30
66190;DHT22;52992;52.084;5.412;2022-08-11T20:10:26;29.90;30.70
66190;DHT22;52992;52.084;5.412;2022-08-11T20:13:13;29.90;31.10
66190;DHT22;52992;52.084;5.412;2022-08-11T20:16:01;29.80;31.10
66190;DHT22;52992;52.084;5.412;2022-08-11T20:18:49;29.70;31.70